createdAt,value
2022-12-12T00:04:25.749Z,61.87
2022-12-12T00:14:36.922Z,60.72
2022-12-12T00:19:44.653Z,38.47
2022-12-12T00:24:50.357Z,30.08
2022-12-12T00:29:56.722Z,44.30
2022-12-12T00:35:02.182Z,35.58
2022-12-12T00:40:08.284Z,48.92
2022-12-12T00:45:14.639Z,69.50
2022-12-12T00:50:20.570Z,50.72
2022-12-12T00:55:29.071Z,56.47
2022-12-12T01:00:35.171Z,52.35
2022-12-12T01:05:41.141Z,44.60
2022-12-12T01:10:46.933Z,57.10
2022-12-12T01:15:52.851Z,62.83
2022-12-12T01:20:58.471Z,30.08
2022-12-12T01:26:08.889Z,46.23
2022-12-12T01:31:15.590Z,51.20
2022-12-12T01:36:22.359Z,51.13
2022-12-12T01:41:28.117Z,55.42
2022-12-12T01:46:36.879Z,40.27
2022-12-12T01:51:43.480Z,56.80
2022-12-12T01:56:49.532Z,38.83
2022-12-12T02:01:55.886Z,43.90
2022-12-12T02:07:02.134Z,48.65
2022-12-12T02:12:07.904Z,50.33
2022-12-12T02:17:33.809Z,40.50
2022-12-12T02:23:02.285Z,48.58
2022-12-12T02:28:13.836Z,30.52
2022-12-12T02:33:36.742Z,37.33
2022-12-12T02:38:42.072Z,58.05
2022-12-12T02:43:59.572Z,38.72
2022-12-12T02:49:07.427Z,46.38
2022-12-12T02:54:17.584Z,40.67
2022-12-12T02:59:25.906Z,52.72
2022-12-12T03:04:55.760Z,53.35
2022-12-12T03:10:03.993Z,43.35
2022-12-12T03:15:23.024Z,42.00
2022-12-12T03:20:39.525Z,38.85
2022-12-12T03:25:52.506Z,37.45
2022-12-12T03:31:00.053Z,42.47
2022-12-12T03:36:27.489Z,30.58
2022-12-12T03:41:37.011Z,38.55
2022-12-12T03:46:45.030Z,32.88
2022-12-12T03:52:08.177Z,39.45
2022-12-12T03:57:22.956Z,31.85
2022-12-12T04:02:44.036Z,44.03
2022-12-12T04:07:59.360Z,26.50
2022-12-12T04:13:30.350Z,44.20
2022-12-12T04:18:40.723Z,40.60
2022-12-12T04:24:01.364Z,54.08
2022-12-12T04:29:09.866Z,55.28
2022-12-12T04:34:22.704Z,48.00
2022-12-12T04:39:28.847Z,43.47
2022-12-12T04:44:36.218Z,44.90
2022-12-12T04:49:43.334Z,38.28
2022-12-12T04:55:20.948Z,31.77
2022-12-12T05:00:28.096Z,34.75
2022-12-12T05:05:39.928Z,45.83
2022-12-12T05:10:46.874Z,41.08
2022-12-12T05:15:57.465Z,45.83
2022-12-12T05:21:22.692Z,49.85
2022-12-12T05:26:32.833Z,35.37
2022-12-12T05:31:38.694Z,47.97
2022-12-12T05:36:44.509Z,33.87
2022-12-12T05:41:50.396Z,37.10
2022-12-12T05:46:56.255Z,37.50
2022-12-12T05:52:01.710Z,29.63
2022-12-12T05:57:08.148Z,33.13
2022-12-12T06:02:14.136Z,34.55
2022-12-12T06:07:20.236Z,32.70
2022-12-12T06:12:27.059Z,37.25
2022-12-12T06:17:33.589Z,44.53
2022-12-12T06:22:39.112Z,30.55
2022-12-12T06:27:45.111Z,36.13
2022-12-12T06:37:56.111Z,34.03
2022-12-12T06:48:10.061Z,43.60
2022-12-12T06:53:15.790Z,26.40
2022-12-12T06:58:21.676Z,31.73
2022-12-12T07:03:27.081Z,37.33
2022-12-12T07:08:32.906Z,41.92
2022-12-12T07:13:38.260Z,26.40
2022-12-12T07:18:44.201Z,55.37
2022-12-12T07:23:50.306Z,31.70
2022-12-12T07:28:55.827Z,40.22
2022-12-12T07:34:01.687Z,37.37
2022-12-12T07:39:07.575Z,38.88
2022-12-12T07:44:13.509Z,53.97
2022-12-12T07:49:19.687Z,45.88
2022-12-12T07:54:25.181Z,30.60
2022-12-12T07:59:31.837Z,44.70
2022-12-12T08:04:37.884Z,46.40
2022-12-12T08:09:44.594Z,36.75
2022-12-12T08:14:53.551Z,32.67
2022-12-12T08:19:59.847Z,48.75
2022-12-12T08:30:11.222Z,48.58
2022-12-12T08:40:22.338Z,53.47
2022-12-12T08:45:27.807Z,24.60
2022-12-12T08:50:33.598Z,46.53
2022-12-12T08:55:39.378Z,42.63
2022-12-12T09:00:47.994Z,33.78
2022-12-12T09:05:54.764Z,32.15
2022-12-12T09:11:00.753Z,48.25
2022-12-12T09:16:06.671Z,44.40
2022-12-12T09:21:12.440Z,33.25
2022-12-12T09:26:19.322Z,61.00
2022-12-12T09:31:25.352Z,35.95
2022-12-12T09:36:31.383Z,31.48
2022-12-12T09:41:38.288Z,52.03
2022-12-12T09:46:52.091Z,55.88
2022-12-12T09:51:58.825Z,75.05
2022-12-12T09:57:24.042Z,60.70
2022-12-12T10:02:29.905Z,62.58
2022-12-12T10:07:36.287Z,46.95
2022-12-12T10:12:42.157Z,47.67
2022-12-12T10:17:49.838Z,51.50
2022-12-12T10:23:08.601Z,45.38
2022-12-12T10:28:16.307Z,38.53
2022-12-12T10:33:40.270Z,44.63
2022-12-12T10:39:04.247Z,50.15
2022-12-12T10:44:47.382Z,75.20
2022-12-12T10:49:56.353Z,61.08
2022-12-12T10:55:02.284Z,54.92
2022-12-12T11:00:19.823Z,73.43
2022-12-12T11:05:28.715Z,54.33
2022-12-12T11:10:36.104Z,70.85
2022-12-12T11:15:41.730Z,90.05
2022-12-12T11:21:07.186Z,99.03
2022-12-12T11:26:18.543Z,99.43
2022-12-12T11:31:26.084Z,65.43
2022-12-12T11:36:37.223Z,53.30
2022-12-12T11:42:01.611Z,61.03
2022-12-12T11:47:28.296Z,75.30
2022-12-12T11:52:35.590Z,80.82
2022-12-12T11:57:48.091Z,75.50
2022-12-12T12:03:00.049Z,84.22
2022-12-12T12:08:21.269Z,83.07
2022-12-12T12:13:27.269Z,91.25
2022-12-12T12:18:51.953Z,72.10
2022-12-12T12:24:09.942Z,83.90
2022-12-12T12:29:24.998Z,87.30
2022-12-12T12:34:34.720Z,91.88
2022-12-12T12:39:46.094Z,77.25
2022-12-12T12:45:14.570Z,78.22
2022-12-12T12:50:28.988Z,104.53
2022-12-12T12:55:39.884Z,112.38
2022-12-12T13:00:48.640Z,129.50
2022-12-12T13:06:03.255Z,131.30
2022-12-12T13:11:11.449Z,132.68
2022-12-12T13:16:20.230Z,104.57
2022-12-12T13:21:35.185Z,115.95
2022-12-12T13:26:51.087Z,90.43
2022-12-12T13:32:15.271Z,104.97
2022-12-12T13:37:23.048Z,136.40
2022-12-12T13:42:30.109Z,126.43
2022-12-12T13:47:36.343Z,150.38
2022-12-12T13:52:43.889Z,169.25
2022-12-12T13:58:08.120Z,175.00
2022-12-12T14:03:15.066Z,181.38
2022-12-12T14:08:21.500Z,176.45
2022-12-12T14:13:36.135Z,151.20
2022-12-12T14:18:58.370Z,151.65
2022-12-12T14:24:24.054Z,164.25
2022-12-12T14:29:31.383Z,160.25
2022-12-12T14:34:40.532Z,155.68
2022-12-12T14:39:47.701Z,162.55
2022-12-12T14:44:56.040Z,166.13
2022-12-12T14:50:14.351Z,150.95
2022-12-12T14:55:27.383Z,162.07
2022-12-12T15:00:34.735Z,170.07
2022-12-12T15:05:40.880Z,170.20
2022-12-12T15:10:46.500Z,196.48
2022-12-12T15:15:57.062Z,164.63
2022-12-12T15:21:03.008Z,152.80
2022-12-12T15:26:16.970Z,154.70
2022-12-12T15:31:23.299Z,167.20
2022-12-12T15:41:35.451Z,177.70
2022-12-12T15:46:41.313Z,157.77
2022-12-12T15:51:46.886Z,170.77
2022-12-12T15:56:53.056Z,163.23
2022-12-12T16:01:59.917Z,172.07
2022-12-12T16:07:17.285Z,139.52
2022-12-12T16:12:43.317Z,168.77
2022-12-12T16:18:21.327Z,163.23
2022-12-12T16:23:31.541Z,144.25
2022-12-12T16:28:37.710Z,148.52
2022-12-12T16:33:44.009Z,144.18
2022-12-12T16:38:50.762Z,146.70
2022-12-12T16:43:56.458Z,144.20
2022-12-12T16:49:08.299Z,128.53
2022-12-12T16:54:19.883Z,133.18
2022-12-12T16:59:29.036Z,137.80
2022-12-12T17:04:34.541Z,129.23
2022-12-12T17:09:43.571Z,130.93
2022-12-12T17:14:49.528Z,138.75
2022-12-12T17:19:58.929Z,134.20
2022-12-12T17:25:07.574Z,125.70
2022-12-12T17:30:14.332Z,135.53
2022-12-12T17:35:20.285Z,136.65
2022-12-12T17:40:26.389Z,132.85
2022-12-12T17:45:32.073Z,118.53
2022-12-12T17:50:41.691Z,125.57
2022-12-12T17:55:54.128Z,120.13
2022-12-12T18:01:01.189Z,120.03
2022-12-12T18:06:07.358Z,116.27
2022-12-12T18:11:14.485Z,117.10
2022-12-12T18:16:20.282Z,117.38
2022-12-12T18:31:58.753Z,108.07
2022-12-12T18:37:04.166Z,113.27
2022-12-12T18:42:10.628Z,113.30
2022-12-12T18:47:16.345Z,109.40
2022-12-12T18:52:22.823Z,115.37
2022-12-12T18:57:29.098Z,108.15
2022-12-12T19:02:38.996Z,102.95
2022-12-12T19:07:45.563Z,102.32
2022-12-12T19:12:51.308Z,95.88
2022-12-12T19:17:57.567Z,104.37
2022-12-12T19:23:03.585Z,102.30
2022-12-12T19:28:09.917Z,100.53
2022-12-12T19:33:15.735Z,102.63
2022-12-12T19:38:24.521Z,100.27
2022-12-12T19:43:32.407Z,101.63
2022-12-12T19:48:38.246Z,103.05
2022-12-12T19:53:45.236Z,96.30
2022-12-12T19:58:51.795Z,102.90
2022-12-12T20:03:58.906Z,92.90
2022-12-12T20:09:05.467Z,97.60
2022-12-12T20:14:14.488Z,107.07
2022-12-12T20:19:20.592Z,105.97
2022-12-12T20:24:26.364Z,115.22
2022-12-12T20:29:32.150Z,114.35
2022-12-12T20:34:37.837Z,105.07
2022-12-12T20:39:43.573Z,105.93
2022-12-12T20:44:49.297Z,104.80
2022-12-12T20:49:55.181Z,124.73
2022-12-12T20:55:00.796Z,119.53
2022-12-12T21:00:07.083Z,124.67
2022-12-12T21:05:13.357Z,112.13
2022-12-12T21:10:19.328Z,106.68
2022-12-12T21:15:25.186Z,109.87
2022-12-12T21:20:30.844Z,115.60
2022-12-12T21:25:38.097Z,127.30
2022-12-12T21:30:47.340Z,117.45
2022-12-12T21:35:52.850Z,111.88
2022-12-12T21:40:58.211Z,128.57
2022-12-12T21:46:07.537Z,118.70
2022-12-12T21:51:16.489Z,112.72
2022-12-12T21:56:22.506Z,107.45
2022-12-12T22:01:28.515Z,107.05
2022-12-12T22:06:35.626Z,113.65
2022-12-12T22:11:49.134Z,121.30
2022-12-12T22:16:55.232Z,129.85
2022-12-12T22:22:00.475Z,106.45
2022-12-12T22:27:06.284Z,130.15
2022-12-12T22:32:12.195Z,142.83
2022-12-12T22:37:17.950Z,144.70
2022-12-12T22:42:23.352Z,133.10
2022-12-12T22:47:28.751Z,131.57
2022-12-12T22:52:36.031Z,141.70
2022-12-12T22:57:41.376Z,130.98
2022-12-12T23:02:47.272Z,111.13
2022-12-12T23:07:53.096Z,114.07
2022-12-12T23:12:59.471Z,110.03
2022-12-12T23:18:05.531Z,120.20
2022-12-12T23:23:11.547Z,115.63
2022-12-12T23:28:17.365Z,125.93
2022-12-12T23:33:23.120Z,98.23
2022-12-12T23:38:30.318Z,94.13
2022-12-12T23:43:36.019Z,97.40
2022-12-12T23:48:41.657Z,82.77
2022-12-12T23:53:47.268Z,96.57
2022-12-12T23:58:54.434Z,93.37
